Aviation Digital Data Service (ADDS)

Output produced by TAFs form (0914 UTC 24 November 2014)
found at http://aviationweather.gov/adds/tafs/
 
KVEL 240540Z 2406/2506 30005KT P6SM BKN200 
     FM240900 28004KT P6SM BKN100 
     FM241600 01012G20KT P6SM SCT200 
     FM250000 28005KT P6SM SCT200